createdAt,value
2018-12-15T00:00:46.003Z,16.98
2018-12-15T00:01:46.417Z,16.98
2018-12-15T00:02:46.343Z,16.97
2018-12-15T00:03:46.173Z,16.98
2018-12-15T00:04:45.900Z,16.97
2018-12-15T00:05:46.006Z,16.96
2018-12-15T00:06:46.029Z,16.95
2018-12-15T00:07:46.028Z,16.95
2018-12-15T00:08:46.127Z,16.95
2018-12-15T00:09:45.922Z,16.94
2018-12-15T00:10:46.124Z,16.95
2018-12-15T00:11:45.998Z,16.93
2018-12-15T00:12:46.392Z,16.93
2018-12-15T00:13:46.169Z,16.92
2018-12-15T00:14:46.017Z,16.92
2018-12-15T00:15:45.795Z,16.92
2018-12-15T00:16:46.098Z,16.91
2018-12-15T00:17:46.328Z,16.91
2018-12-15T00:18:45.978Z,16.91
2018-12-15T00:19:45.993Z,16.91
2018-12-15T00:20:46.070Z,16.91
2018-12-15T00:21:45.906Z,16.9
2018-12-15T00:22:46.279Z,16.9
2018-12-15T00:23:46.244Z,16.89
2018-12-15T00:24:46.088Z,16.88
2018-12-15T00:25:46.082Z,16.89
2018-12-15T00:26:45.986Z,16.88
2018-12-15T00:27:45.962Z,16.87
2018-12-15T00:28:46.014Z,16.87
2018-12-15T00:29:46.081Z,16.86
2018-12-15T00:30:46.379Z,16.87
2018-12-15T00:31:46.045Z,16.86
2018-12-15T00:32:46.284Z,16.85
2018-12-15T00:33:46.238Z,16.85
2018-12-15T00:34:46.422Z,16.85
2018-12-15T00:35:46.152Z,16.84
2018-12-15T00:36:46.388Z,16.84
2018-12-15T00:37:46.000Z,16.84
2018-12-15T00:38:46.290Z,16.83
2018-12-15T00:39:46.278Z,16.83
2018-12-15T00:40:46.195Z,16.82
2018-12-15T00:41:46.428Z,16.82
2018-12-15T00:42:45.854Z,16.82
2018-12-15T00:43:46.236Z,16.8
2018-12-15T00:44:46.116Z,16.8
2018-12-15T00:45:46.384Z,16.79
2018-12-15T00:46:46.059Z,16.8
2018-12-15T00:47:46.928Z,16.8
2018-12-15T00:48:46.114Z,16.79
2018-12-15T00:49:46.180Z,16.79
2018-12-15T00:50:46.129Z,16.79
2018-12-15T00:51:46.288Z,16.79
2018-12-15T00:52:46.198Z,16.78
2018-12-15T00:53:45.976Z,16.79
2018-12-15T00:54:46.360Z,16.77
2018-12-15T00:55:46.085Z,16.77
2018-12-15T00:56:46.106Z,16.77
2018-12-15T00:57:46.389Z,16.76
2018-12-15T00:58:45.947Z,16.76
2018-12-15T00:59:46.261Z,16.77
2018-12-15T01:00:46.105Z,16.76
2018-12-15T01:01:46.236Z,16.76
2018-12-15T01:02:46.759Z,16.74
2018-12-15T01:03:45.940Z,16.74
2018-12-15T01:04:46.018Z,16.75
2018-12-15T01:05:46.034Z,16.74
2018-12-15T01:06:46.253Z,16.73
2018-12-15T01:07:46.069Z,16.73
2018-12-15T01:08:46.197Z,16.74
2018-12-15T01:09:46.209Z,16.74
2018-12-15T01:10:45.902Z,16.73
2018-12-15T01:11:46.470Z,16.74
2018-12-15T01:12:45.769Z,16.74
2018-12-15T01:13:45.965Z,16.73
2018-12-15T01:14:46.901Z,16.73
2018-12-15T01:15:45.920Z,16.73
2018-12-15T01:16:46.221Z,16.73
2018-12-15T01:17:45.910Z,16.73
2018-12-15T01:18:46.353Z,16.73
2018-12-15T01:19:46.386Z,16.72
2018-12-15T01:20:46.201Z,16.71
2018-12-15T01:21:45.988Z,16.72
2018-12-15T01:22:46.067Z,16.71
2018-12-15T01:23:46.032Z,16.7
2018-12-15T01:24:46.107Z,16.71
2018-12-15T01:25:46.029Z,16.71
2018-12-15T01:26:46.446Z,16.7
2018-12-15T01:27:46.412Z,16.7
2018-12-15T01:28:45.936Z,16.69
2018-12-15T01:29:45.861Z,16.68
2018-12-15T01:30:46.063Z,16.68
2018-12-15T01:31:46.130Z,16.67
2018-12-15T01:32:46.298Z,16.68
2018-12-15T01:33:46.346Z,16.68
2018-12-15T01:34:46.038Z,16.68
2018-12-15T01:35:46.465Z,16.67
2018-12-15T01:36:45.866Z,16.67
2018-12-15T01:37:46.049Z,16.66
2018-12-15T01:38:46.058Z,16.66
2018-12-15T01:39:46.288Z,16.66
2018-12-15T01:40:46.390Z,16.66
2018-12-15T01:41:46.835Z,16.66
2018-12-15T01:42:45.895Z,16.66
2018-12-15T01:43:45.846Z,16.66
2018-12-15T01:44:45.983Z,16.66
2018-12-15T01:45:45.887Z,16.66
2018-12-15T01:46:46.232Z,16.65
2018-12-15T01:47:46.038Z,16.65
2018-12-15T01:48:45.817Z,16.65
2018-12-15T01:49:46.002Z,16.64
2018-12-15T01:50:46.418Z,16.64
2018-12-15T01:51:45.982Z,16.64
2018-12-15T01:52:46.071Z,16.66
2018-12-15T01:53:46.522Z,16.64
2018-12-15T01:54:45.881Z,16.63
2018-12-15T01:55:45.992Z,16.64
2018-12-15T01:56:45.944Z,16.64
2018-12-15T01:57:46.028Z,16.65
2018-12-15T01:58:45.912Z,16.63
2018-12-15T01:59:46.148Z,16.66
2018-12-15T02:00:45.762Z,16.65
2018-12-15T02:01:46.008Z,16.65
2018-12-15T02:02:45.913Z,16.66
2018-12-15T02:03:46.153Z,16.65
2018-12-15T02:04:45.995Z,16.64
2018-12-15T02:05:45.902Z,16.65
2018-12-15T02:06:46.025Z,16.66
2018-12-15T02:07:46.075Z,16.62
2018-12-15T02:08:46.005Z,16.65
2018-12-15T02:09:46.074Z,16.63
2018-12-15T02:10:45.931Z,16.62
2018-12-15T02:11:46.065Z,16.63
2018-12-15T02:12:45.849Z,16.62
2018-12-15T02:13:45.785Z,16.66
2018-12-15T02:14:46.297Z,16.64
2018-12-15T02:15:46.253Z,16.64
2018-12-15T02:16:46.238Z,16.62
2018-12-15T02:17:46.101Z,16.61
2018-12-15T02:18:45.988Z,16.6
2018-12-15T02:19:46.486Z,16.62
2018-12-15T02:20:46.027Z,16.62
2018-12-15T02:21:45.824Z,16.62
2018-12-15T02:22:45.872Z,16.62
2018-12-15T02:23:46.319Z,16.64
2018-12-15T02:24:46.530Z,16.63
2018-12-15T02:25:46.025Z,16.62
2018-12-15T02:26:46.088Z,16.63
2018-12-15T02:27:45.948Z,16.62
2018-12-15T02:28:45.955Z,16.61
2018-12-15T02:29:46.356Z,16.62
2018-12-15T02:30:47.924Z,16.62
2018-12-15T02:31:46.184Z,16.61
2018-12-15T02:32:46.241Z,16.6
2018-12-15T02:33:45.912Z,16.62
2018-12-15T02:34:46.320Z,16.61
2018-12-15T02:35:46.256Z,16.63
2018-12-15T02:36:46.485Z,16.62
2018-12-15T02:37:45.755Z,16.63
2018-12-15T02:38:46.082Z,16.63
2018-12-15T02:39:46.670Z,16.62
2018-12-15T02:40:45.994Z,16.63
2018-12-15T02:41:47.727Z,16.64
2018-12-15T02:42:46.272Z,16.61
2018-12-15T02:43:45.955Z,16.63
2018-12-15T02:44:46.259Z,16.61
2018-12-15T02:45:46.001Z,16.6
2018-12-15T02:46:45.875Z,16.6
2018-12-15T02:47:46.198Z,16.6
2018-12-15T02:48:46.241Z,16.6
2018-12-15T02:49:46.193Z,16.59
2018-12-15T02:50:46.193Z,16.6
2018-12-15T02:51:46.201Z,16.6
2018-12-15T02:52:46.046Z,16.59
2018-12-15T02:53:46.438Z,16.61
2018-12-15T02:54:45.861Z,16.6
2018-12-15T02:55:46.016Z,16.58
2018-12-15T02:56:46.176Z,16.58
2018-12-15T02:57:46.088Z,16.6
2018-12-15T02:58:46.050Z,16.6
2018-12-15T02:59:45.999Z,16.6
2018-12-15T03:00:46.443Z,16.6
2018-12-15T03:01:46.064Z,16.59
2018-12-15T03:02:46.090Z,16.59
2018-12-15T03:03:45.910Z,16.59
2018-12-15T03:04:45.980Z,16.59
2018-12-15T03:05:46.660Z,16.6
2018-12-15T03:06:45.924Z,16.58
2018-12-15T03:07:46.022Z,16.58
2018-12-15T03:08:45.859Z,16.6
2018-12-15T03:09:45.865Z,16.58
2018-12-15T03:10:46.105Z,16.56
2018-12-15T03:11:45.876Z,16.58
2018-12-15T03:12:46.011Z,16.57
2018-12-15T03:13:45.886Z,16.57
2018-12-15T03:14:46.034Z,16.56
2018-12-15T03:15:46.260Z,16.58
2018-12-15T03:16:46.491Z,16.57
2018-12-15T03:17:49.415Z,16.57
2018-12-15T03:18:45.831Z,16.57
2018-12-15T03:19:46.323Z,16.57
2018-12-15T03:20:45.933Z,16.55
2018-12-15T03:21:46.310Z,16.54
2018-12-15T03:22:46.123Z,16.54
2018-12-15T03:23:46.162Z,16.55
2018-12-15T03:24:46.169Z,16.54
2018-12-15T03:25:46.148Z,16.54
2018-12-15T03:26:46.290Z,16.54
2018-12-15T03:27:46.138Z,16.54
2018-12-15T03:28:46.009Z,16.53
2018-12-15T03:29:46.495Z,16.53
2018-12-15T03:30:46.412Z,16.52
2018-12-15T03:31:46.119Z,16.52
2018-12-15T03:32:45.915Z,16.52
2018-12-15T03:33:45.814Z,16.52
2018-12-15T03:34:45.852Z,16.53
2018-12-15T03:35:45.902Z,16.51
2018-12-15T03:36:46.131Z,16.53
2018-12-15T03:37:45.993Z,16.52
2018-12-15T03:38:46.095Z,16.51
2018-12-15T03:39:45.933Z,16.5
2018-12-15T03:40:46.067Z,16.51
2018-12-15T03:41:45.880Z,16.51
2018-12-15T03:42:45.783Z,16.51
2018-12-15T03:43:46.113Z,16.51
2018-12-15T03:44:46.247Z,16.5
2018-12-15T03:45:46.007Z,16.5
2018-12-15T03:46:46.134Z,16.5
2018-12-15T03:47:45.990Z,16.5
2018-12-15T03:48:45.892Z,16.52
2018-12-15T03:49:45.991Z,16.51
2018-12-15T03:50:46.102Z,16.51
2018-12-15T03:51:46.514Z,16.5
2018-12-15T03:52:46.050Z,16.51
2018-12-15T03:53:46.480Z,16.49
2018-12-15T03:54:46.016Z,16.51
2018-12-15T03:55:46.466Z,16.52
2018-12-15T03:56:45.939Z,16.53
2018-12-15T03:57:46.571Z,16.51
2018-12-15T03:58:46.074Z,16.51
2018-12-15T03:59:45.957Z,16.5
2018-12-15T04:00:45.876Z,16.47
2018-12-15T04:01:45.961Z,16.48
2018-12-15T04:02:46.558Z,16.47
2018-12-15T04:03:46.223Z,16.47
2018-12-15T04:04:45.992Z,16.47
2018-12-15T04:05:46.151Z,16.47
2018-12-15T04:06:45.941Z,16.47
2018-12-15T04:07:46.152Z,16.47
2018-12-15T04:08:46.069Z,16.46
2018-12-15T04:09:45.994Z,16.46
2018-12-15T04:10:46.067Z,16.45
2018-12-15T04:11:46.325Z,16.45
2018-12-15T04:12:46.065Z,16.46
2018-12-15T04:13:45.909Z,16.44
2018-12-15T04:14:45.898Z,16.47
2018-12-15T04:15:46.191Z,16.46
2018-12-15T04:16:46.447Z,16.46
2018-12-15T04:17:46.109Z,16.47
2018-12-15T04:18:45.988Z,16.45
2018-12-15T04:19:45.861Z,16.46
2018-12-15T04:20:46.376Z,16.44
2018-12-15T04:21:46.065Z,16.44
2018-12-15T04:22:45.971Z,16.42
2018-12-15T04:23:46.003Z,16.42
2018-12-15T04:24:46.145Z,16.43
2018-12-15T04:25:46.028Z,16.42
2018-12-15T04:26:46.000Z,16.42
2018-12-15T04:27:45.766Z,16.44
2018-12-15T04:28:46.286Z,16.43
2018-12-15T04:29:46.186Z,16.43
2018-12-15T04:30:46.181Z,16.42
2018-12-15T04:31:45.984Z,16.42
2018-12-15T04:32:45.958Z,16.41
2018-12-15T04:33:45.839Z,16.42
2018-12-15T04:34:45.906Z,16.41
2018-12-15T04:35:46.390Z,16.43
2018-12-15T04:36:45.816Z,16.42
2018-12-15T04:37:46.345Z,16.44
2018-12-15T04:38:46.096Z,16.41
2018-12-15T04:39:46.323Z,16.4
2018-12-15T04:40:45.972Z,16.39
2018-12-15T04:41:45.834Z,16.39
2018-12-15T04:42:46.456Z,16.39
2018-12-15T04:43:45.897Z,16.4
2018-12-15T04:44:46.161Z,16.39
2018-12-15T04:45:46.685Z,16.4
2018-12-15T04:46:45.925Z,16.4
2018-12-15T04:47:46.336Z,16.41
2018-12-15T04:48:46.042Z,16.41
2018-12-15T04:49:46.005Z,16.41
2018-12-15T04:50:45.884Z,16.43
2018-12-15T04:51:45.845Z,16.44
2018-12-15T04:52:46.162Z,16.44
2018-12-15T04:53:46.085Z,16.45
2018-12-15T04:54:45.802Z,16.46
2018-12-15T04:55:45.921Z,16.47
2018-12-15T04:56:46.195Z,16.47
2018-12-15T04:57:46.103Z,16.48
2018-12-15T04:58:46.007Z,16.48
2018-12-15T04:59:46.139Z,16.5
2018-12-15T05:00:46.233Z,16.51
2018-12-15T05:01:46.299Z,16.53
2018-12-15T05:02:46.124Z,16.53
2018-12-15T05:03:45.814Z,16.54
2018-12-15T05:04:45.932Z,16.55
2018-12-15T05:05:45.870Z,16.56
2018-12-15T05:06:46.024Z,16.58
2018-12-15T05:07:46.138Z,16.6
2018-12-15T05:08:46.057Z,16.61
2018-12-15T05:09:45.879Z,16.63
2018-12-15T05:10:46.160Z,16.64
2018-12-15T05:11:46.058Z,16.66
2018-12-15T05:12:45.747Z,16.67
2018-12-15T05:13:46.011Z,16.69
2018-12-15T05:14:45.978Z,16.7
2018-12-15T05:15:45.940Z,16.71
2018-12-15T05:16:45.745Z,16.73
2018-12-15T05:17:45.919Z,16.73
2018-12-15T05:18:46.083Z,16.75
2018-12-15T05:19:45.793Z,16.77
2018-12-15T05:20:45.924Z,16.79
2018-12-15T05:21:45.784Z,16.8
2018-12-15T05:22:45.889Z,16.81
2018-12-15T05:23:46.129Z,16.83
2018-12-15T05:24:45.811Z,16.84
2018-12-15T05:25:46.574Z,16.85
2018-12-15T05:26:45.783Z,16.87
2018-12-15T05:27:46.167Z,16.89
2018-12-15T05:28:45.745Z,16.91
2018-12-15T05:29:45.967Z,16.92
2018-12-15T05:30:45.732Z,16.94
2018-12-15T05:31:46.135Z,16.96
2018-12-15T05:32:46.104Z,16.98
2018-12-15T05:33:46.134Z,17
2018-12-15T05:34:46.349Z,17.01
2018-12-15T05:35:46.371Z,17.04
2018-12-15T05:36:46.051Z,17.04
2018-12-15T05:37:46.259Z,17.06
2018-12-15T05:38:46.253Z,17.07
2018-12-15T05:39:46.383Z,17.09
2018-12-15T05:40:46.079Z,17.1
2018-12-15T05:41:45.953Z,17.11
2018-12-15T05:42:46.485Z,17.13
2018-12-15T05:43:45.911Z,17.14
2018-12-15T05:44:45.950Z,17.16
2018-12-15T05:45:45.713Z,17.18
2018-12-15T05:46:45.944Z,17.19
2018-12-15T05:47:45.950Z,17.19
2018-12-15T05:48:46.256Z,17.22
2018-12-15T05:49:45.889Z,17.23
2018-12-15T05:50:45.716Z,17.23
2018-12-15T05:51:45.851Z,17.25
2018-12-15T05:52:46.272Z,17.27
2018-12-15T05:53:46.494Z,17.28
2018-12-15T05:54:46.426Z,17.29
2018-12-15T05:55:46.002Z,17.3
2018-12-15T05:56:45.859Z,17.31
2018-12-15T05:57:45.694Z,17.33
2018-12-15T05:58:46.107Z,17.34
2018-12-15T05:59:45.886Z,17.35
2018-12-15T06:00:46.671Z,17.36
2018-12-15T06:01:46.257Z,17.37
2018-12-15T06:02:45.843Z,17.38
2018-12-15T06:03:46.046Z,17.39
2018-12-15T06:04:45.936Z,17.4
2018-12-15T06:05:46.014Z,17.42
2018-12-15T06:06:46.154Z,17.42
2018-12-15T06:07:45.798Z,17.43
2018-12-15T06:08:46.422Z,17.45
2018-12-15T06:09:46.051Z,17.45
2018-12-15T06:10:46.146Z,17.47
2018-12-15T06:11:46.327Z,17.48
2018-12-15T06:12:45.726Z,17.48
2018-12-15T06:13:46.090Z,17.49
2018-12-15T06:14:46.307Z,17.5
2018-12-15T06:15:46.548Z,17.51
2018-12-15T06:16:45.867Z,17.52
2018-12-15T06:17:46.045Z,17.53
2018-12-15T06:18:46.450Z,17.54
2018-12-15T06:19:46.035Z,17.54
2018-12-15T06:20:45.956Z,17.56
2018-12-15T06:21:46.267Z,17.56
2018-12-15T06:22:45.954Z,17.57
2018-12-15T06:23:45.778Z,17.58
2018-12-15T06:24:45.798Z,17.6
2018-12-15T06:25:45.796Z,17.6
2018-12-15T06:26:46.224Z,17.61
2018-12-15T06:27:45.640Z,17.61
2018-12-15T06:28:46.229Z,17.62
2018-12-15T06:29:46.038Z,17.63
2018-12-15T06:30:46.144Z,17.63
2018-12-15T06:31:46.209Z,17.64
2018-12-15T06:32:45.799Z,17.65
2018-12-15T06:33:46.670Z,17.66
2018-12-15T06:34:46.134Z,17.66
2018-12-15T06:35:46.070Z,17.67
2018-12-15T06:36:45.948Z,17.67
2018-12-15T06:37:45.818Z,17.67
2018-12-15T06:38:46.518Z,17.68
2018-12-15T06:39:46.896Z,17.69
2018-12-15T06:40:46.212Z,17.7
2018-12-15T06:41:46.369Z,17.7
2018-12-15T06:42:45.809Z,17.71
2018-12-15T06:43:45.865Z,17.71
2018-12-15T06:44:45.837Z,17.73
2018-12-15T06:45:46.121Z,17.73
2018-12-15T06:46:45.797Z,17.73
2018-12-15T06:47:45.817Z,17.75
2018-12-15T06:48:46.278Z,17.75
2018-12-15T06:49:45.774Z,17.75
2018-12-15T06:50:46.208Z,17.76
2018-12-15T06:51:45.947Z,17.78
2018-12-15T06:52:45.955Z,17.79
2018-12-15T06:53:46.025Z,17.79
2018-12-15T06:54:45.714Z,17.79
2018-12-15T06:55:46.104Z,17.8
2018-12-15T06:56:46.093Z,17.81
2018-12-15T06:57:45.982Z,17.82
2018-12-15T06:58:46.063Z,17.83
2018-12-15T06:59:45.783Z,17.84
2018-12-15T07:00:45.905Z,17.84
2018-12-15T07:01:45.604Z,17.85
2018-12-15T07:02:45.909Z,17.86
2018-12-15T07:03:45.758Z,17.86
2018-12-15T07:04:45.778Z,17.86
2018-12-15T07:05:46.198Z,17.88
2018-12-15T07:06:46.040Z,17.88
2018-12-15T07:07:45.897Z,17.89
2018-12-15T07:08:45.751Z,17.89
2018-12-15T07:09:46.085Z,17.91
2018-12-15T07:10:46.035Z,17.92
2018-12-15T07:11:45.888Z,17.92
2018-12-15T07:12:46.109Z,17.92
2018-12-15T07:13:46.127Z,17.94
2018-12-15T07:14:46.164Z,17.94
2018-12-15T07:15:45.819Z,17.95
2018-12-15T07:16:46.444Z,17.96
2018-12-15T07:17:46.086Z,17.97
2018-12-15T07:18:46.257Z,17.98
2018-12-15T07:19:46.021Z,17.98
2018-12-15T07:20:45.849Z,17.99
2018-12-15T07:21:45.858Z,17.99
2018-12-15T07:22:46.130Z,18
2018-12-15T07:23:46.229Z,18.01
2018-12-15T07:24:45.888Z,18.01
2018-12-15T07:25:45.710Z,18.02
2018-12-15T07:26:45.927Z,18.03
2018-12-15T07:27:45.748Z,18.04
2018-12-15T07:28:45.765Z,18.04
2018-12-15T07:29:46.168Z,18.04
2018-12-15T07:30:46.176Z,18.05
2018-12-15T07:31:45.837Z,18.06
2018-12-15T07:32:46.371Z,18.06
2018-12-15T07:33:45.890Z,18.07
2018-12-15T07:34:46.170Z,18.07
2018-12-15T07:35:45.750Z,18.08
2018-12-15T07:36:46.138Z,18.09
2018-12-15T07:37:45.908Z,18.09
2018-12-15T07:38:45.767Z,18.09
2018-12-15T07:39:46.102Z,18.1
2018-12-15T07:40:45.746Z,18.1
2018-12-15T07:41:45.892Z,18.1
2018-12-15T07:42:45.706Z,18.11
2018-12-15T07:43:46.164Z,18.11
2018-12-15T07:44:46.395Z,18.12
2018-12-15T07:45:45.667Z,18.12
2018-12-15T07:46:45.960Z,18.13
2018-12-15T07:47:46.637Z,18.14
2018-12-15T07:48:51.852Z,18.15
2018-12-15T07:49:46.191Z,18.15
2018-12-15T07:50:45.802Z,18.16
2018-12-15T07:51:45.919Z,18.16
2018-12-15T07:52:45.957Z,18.17
2018-12-15T07:53:46.241Z,18.17
2018-12-15T07:54:45.880Z,18.17
2018-12-15T07:55:46.126Z,18.17
2018-12-15T07:56:46.055Z,18.17
2018-12-15T07:57:46.554Z,18.18
2018-12-15T07:58:46.100Z,18.17
2018-12-15T07:59:46.273Z,18.18
2018-12-15T08:00:46.260Z,18.19
2018-12-15T08:01:45.807Z,18.19
2018-12-15T08:02:45.692Z,18.19
2018-12-15T08:03:46.051Z,18.2
2018-12-15T08:04:46.118Z,18.2
2018-12-15T08:05:46.314Z,18.2
2018-12-15T08:06:45.862Z,18.21
2018-12-15T08:07:46.092Z,18.21
2018-12-15T08:08:46.102Z,18.21
2018-12-15T08:09:45.870Z,18.22
2018-12-15T08:10:45.812Z,18.22
2018-12-15T08:11:46.305Z,18.23
2018-12-15T08:12:46.029Z,18.23
2018-12-15T08:13:46.243Z,18.23
2018-12-15T08:14:45.699Z,18.23
2018-12-15T08:15:46.082Z,18.24
2018-12-15T08:16:45.986Z,18.23
2018-12-15T08:17:45.722Z,18.24
2018-12-15T08:18:45.933Z,18.25
2018-12-15T08:19:45.641Z,18.25
2018-12-15T08:20:45.881Z,18.26
2018-12-15T08:21:45.746Z,18.26
2018-12-15T08:22:45.724Z,18.26
2018-12-15T08:23:45.945Z,18.27
2018-12-15T08:24:46.037Z,18.27
2018-12-15T08:25:46.148Z,18.27
2018-12-15T08:26:46.049Z,18.27
2018-12-15T08:27:46.158Z,18.27
2018-12-15T08:28:45.862Z,18.27
2018-12-15T08:29:45.725Z,18.28
2018-12-15T08:30:46.091Z,18.28
2018-12-15T08:31:46.334Z,18.27
2018-12-15T08:32:45.762Z,18.27
2018-12-15T08:33:46.145Z,18.28
2018-12-15T08:34:45.890Z,18.28
2018-12-15T08:35:45.925Z,18.29
2018-12-15T08:36:45.705Z,18.29
2018-12-15T08:37:45.792Z,18.28
2018-12-15T08:38:45.759Z,18.29
2018-12-15T08:39:45.798Z,18.29
2018-12-15T08:40:45.824Z,18.29
2018-12-15T08:41:45.766Z,18.29
2018-12-15T08:42:45.873Z,18.29
2018-12-15T08:43:46.046Z,18.29
2018-12-15T08:44:45.989Z,18.29
2018-12-15T08:45:45.849Z,18.3
2018-12-15T08:46:45.656Z,18.29
2018-12-15T08:47:46.013Z,18.3
2018-12-15T08:48:45.757Z,18.31
2018-12-15T08:49:45.702Z,18.31
2018-12-15T08:50:45.954Z,18.32
2018-12-15T08:51:45.916Z,18.32
2018-12-15T08:52:46.025Z,18.31
2018-12-15T08:53:45.867Z,18.32
2018-12-15T08:54:46.184Z,18.32
2018-12-15T08:55:45.765Z,18.32
2018-12-15T08:56:46.141Z,18.32
2018-12-15T08:57:45.682Z,18.34
2018-12-15T08:58:46.076Z,18.33
2018-12-15T08:59:45.665Z,18.34
2018-12-15T09:00:46.199Z,18.34
2018-12-15T09:01:45.682Z,18.34
2018-12-15T09:02:45.866Z,18.35
2018-12-15T09:03:46.106Z,18.35
2018-12-15T09:04:45.692Z,18.35
2018-12-15T09:05:45.830Z,18.35
2018-12-15T09:06:46.110Z,18.35
2018-12-15T09:07:45.897Z,18.35
2018-12-15T09:08:46.399Z,18.35
2018-12-15T09:09:46.684Z,18.35
2018-12-15T09:10:46.130Z,18.36
2018-12-15T09:11:46.081Z,18.36
2018-12-15T09:12:46.146Z,18.36
2018-12-15T09:13:46.041Z,18.36
2018-12-15T09:14:46.120Z,18.37
2018-12-15T09:15:45.756Z,18.38
2018-12-15T09:16:46.281Z,18.38
2018-12-15T09:17:45.900Z,18.38
2018-12-15T09:18:46.198Z,18.39
2018-12-15T09:19:45.725Z,18.39
2018-12-15T09:20:45.882Z,18.4
2018-12-15T09:21:45.779Z,18.4
2018-12-15T09:22:45.877Z,18.4
2018-12-15T09:23:45.842Z,18.41
2018-12-15T09:24:45.863Z,18.41
2018-12-15T09:25:46.186Z,18.41
2018-12-15T09:26:45.763Z,18.41
2018-12-15T09:27:46.183Z,18.41
2018-12-15T09:28:45.870Z,18.41
2018-12-15T09:29:46.111Z,18.42
2018-12-15T09:30:45.646Z,18.43
2018-12-15T09:31:45.834Z,18.43
2018-12-15T09:32:46.338Z,18.43
2018-12-15T09:33:46.025Z,18.43
2018-12-15T09:34:45.838Z,18.43
2018-12-15T09:35:45.649Z,18.44
2018-12-15T09:36:45.773Z,18.44
2018-12-15T09:37:45.883Z,18.44
2018-12-15T09:38:45.841Z,18.44
2018-12-15T09:39:46.021Z,18.45
2018-12-15T09:40:45.869Z,18.45
2018-12-15T09:41:46.108Z,18.46
2018-12-15T09:42:45.831Z,18.46
2018-12-15T09:43:45.813Z,18.46
2018-12-15T09:44:46.330Z,18.47
2018-12-15T09:45:45.750Z,18.47
2018-12-15T09:46:46.040Z,18.48
2018-12-15T09:47:46.770Z,18.48
2018-12-15T09:48:45.863Z,18.48
2018-12-15T09:49:46.177Z,18.48
2018-12-15T09:50:45.641Z,18.49
2018-12-15T09:51:45.917Z,18.49
2018-12-15T09:52:45.775Z,18.49
2018-12-15T09:53:45.781Z,18.5
2018-12-15T09:54:46.376Z,18.5
2018-12-15T09:55:45.868Z,18.5
2018-12-15T09:56:45.874Z,18.51
2018-12-15T09:57:45.856Z,18.5
2018-12-15T09:58:46.200Z,18.54
2018-12-15T09:59:45.808Z,18.54
2018-12-15T10:00:45.678Z,18.54
2018-12-15T10:01:45.893Z,18.55
2018-12-15T10:02:46.712Z,18.56
2018-12-15T10:03:45.676Z,18.57
2018-12-15T10:04:46.182Z,18.57
2018-12-15T10:05:45.623Z,18.6
2018-12-15T10:06:45.746Z,18.6
2018-12-15T10:07:45.832Z,18.61
2018-12-15T10:08:46.790Z,18.62
2018-12-15T10:09:45.642Z,18.62
2018-12-15T10:10:45.700Z,18.63
2018-12-15T10:11:45.871Z,18.65
2018-12-15T10:12:45.918Z,18.67
2018-12-15T10:13:45.744Z,18.67
2018-12-15T10:14:46.051Z,18.69
2018-12-15T10:15:45.674Z,18.68
2018-12-15T10:16:46.199Z,18.7
2018-12-15T10:17:46.001Z,18.72
2018-12-15T10:18:45.861Z,18.74
2018-12-15T10:19:45.848Z,18.76
2018-12-15T10:20:45.721Z,18.73
2018-12-15T10:21:46.246Z,18.76
2018-12-15T10:22:46.133Z,18.75
2018-12-15T10:23:45.729Z,18.78
2018-12-15T10:24:46.098Z,18.78
2018-12-15T10:25:45.780Z,18.79
2018-12-15T10:26:46.073Z,18.8
2018-12-15T10:27:46.239Z,18.81
2018-12-15T10:28:46.087Z,18.78
2018-12-15T10:29:45.824Z,18.78
2018-12-15T10:30:45.717Z,18.78
2018-12-15T10:31:46.097Z,18.8
2018-12-15T10:32:46.029Z,18.79
2018-12-15T10:33:46.124Z,18.8
2018-12-15T10:34:46.011Z,18.82
2018-12-15T10:35:46.286Z,18.81
2018-12-15T10:36:46.122Z,18.81
2018-12-15T10:37:45.739Z,18.81
2018-12-15T10:38:46.093Z,18.82
2018-12-15T10:39:45.720Z,18.83
2018-12-15T10:40:46.032Z,18.82
2018-12-15T10:41:45.601Z,18.83
2018-12-15T10:42:45.843Z,18.83
2018-12-15T10:43:45.617Z,18.82
2018-12-15T10:44:46.207Z,18.83
2018-12-15T10:45:45.771Z,18.84
2018-12-15T10:46:45.719Z,18.84
2018-12-15T10:47:45.895Z,18.82
2018-12-15T10:48:45.767Z,18.82
2018-12-15T10:49:46.055Z,18.82
2018-12-15T10:50:45.870Z,18.82
2018-12-15T10:51:45.720Z,18.83
2018-12-15T10:52:46.278Z,18.84
2018-12-15T10:53:46.185Z,18.83
2018-12-15T10:54:45.605Z,18.84
2018-12-15T10:55:46.107Z,18.83
2018-12-15T10:56:46.207Z,18.84
2018-12-15T10:57:46.692Z,18.84
2018-12-15T10:58:45.869Z,18.84
2018-12-15T10:59:46.354Z,18.85
2018-12-15T11:00:45.882Z,18.89
2018-12-15T11:01:45.760Z,18.87
2018-12-15T11:02:46.159Z,18.87
2018-12-15T11:03:46.562Z,18.88
2018-12-15T11:04:45.754Z,18.87
2018-12-15T11:05:45.711Z,18.87
2018-12-15T11:06:46.172Z,18.87
2018-12-15T11:07:46.156Z,18.89
2018-12-15T11:08:45.669Z,18.89
2018-12-15T11:09:45.715Z,18.89
2018-12-15T11:10:46.075Z,18.89
2018-12-15T11:11:46.304Z,18.9
2018-12-15T11:12:45.722Z,18.9
2018-12-15T11:13:46.605Z,18.92
2018-12-15T11:14:45.792Z,18.9
2018-12-15T11:15:45.954Z,18.9
2018-12-15T11:16:46.234Z,18.88
2018-12-15T11:17:45.708Z,18.87
2018-12-15T11:18:45.819Z,18.9
2018-12-15T11:19:45.810Z,18.89
2018-12-15T11:20:45.979Z,18.88
2018-12-15T11:21:45.861Z,18.86
2018-12-15T11:22:45.661Z,18.87
2018-12-15T11:23:46.130Z,18.86
2018-12-15T11:24:46.224Z,18.87
2018-12-15T11:25:45.826Z,18.87
2018-12-15T11:26:46.131Z,18.85
2018-12-15T11:27:45.849Z,18.85
2018-12-15T11:28:46.097Z,18.84
2018-12-15T11:29:46.658Z,18.84
2018-12-15T11:30:46.168Z,18.85
2018-12-15T11:31:46.141Z,18.87
2018-12-15T11:32:45.711Z,18.88
2018-12-15T11:33:45.783Z,18.88
2018-12-15T11:34:46.157Z,18.89
2018-12-15T11:35:45.715Z,18.89
2018-12-15T11:36:46.323Z,18.89
2018-12-15T11:37:45.815Z,18.89
2018-12-15T11:38:45.823Z,18.9
2018-12-15T11:39:45.905Z,18.9
2018-12-15T11:40:45.633Z,18.9
2018-12-15T11:41:45.831Z,18.9
2018-12-15T11:42:45.819Z,18.91
2018-12-15T11:43:45.915Z,18.91
2018-12-15T11:44:45.953Z,18.91
2018-12-15T11:45:45.823Z,18.91
2018-12-15T11:46:45.933Z,18.9
2018-12-15T11:47:45.807Z,18.91
2018-12-15T11:48:45.754Z,18.91
2018-12-15T11:49:45.991Z,18.92
2018-12-15T11:50:45.772Z,18.92
2018-12-15T11:51:45.853Z,18.92
2018-12-15T11:52:45.737Z,18.92
2018-12-15T11:53:45.859Z,18.93
2018-12-15T11:54:46.131Z,18.95
2018-12-15T11:55:46.012Z,18.95
2018-12-15T11:56:45.721Z,18.95
2018-12-15T11:57:46.013Z,18.97
2018-12-15T11:58:45.848Z,18.97
2018-12-15T11:59:46.354Z,18.98
2018-12-15T12:00:45.802Z,18.98
2018-12-15T12:01:45.978Z,18.98
2018-12-15T12:02:46.045Z,19
2018-12-15T12:03:45.758Z,19
2018-12-15T12:04:45.693Z,19
2018-12-15T12:05:45.885Z,19
2018-12-15T12:06:46.029Z,19.02
2018-12-15T12:07:45.837Z,19.01
2018-12-15T12:08:45.929Z,19.02
2018-12-15T12:09:45.833Z,19.03
2018-12-15T12:10:45.770Z,19.04
2018-12-15T12:11:46.343Z,19.03
2018-12-15T12:12:46.227Z,19.03
2018-12-15T12:13:45.940Z,19.03
2018-12-15T12:14:46.187Z,19.04
2018-12-15T12:15:45.878Z,19.04
2018-12-15T12:16:45.959Z,19.04
2018-12-15T12:17:46.093Z,19.07
2018-12-15T12:18:46.560Z,19.08
2018-12-15T12:19:50.753Z,19.06
2018-12-15T12:20:45.568Z,19.06
2018-12-15T12:21:45.986Z,19.06
2018-12-15T12:22:45.872Z,19.06
2018-12-15T12:23:45.967Z,19.05
2018-12-15T12:24:45.560Z,19.04
2018-12-15T12:25:45.906Z,19.04
2018-12-15T12:26:45.797Z,19.04
2018-12-15T12:27:46.157Z,19.03
2018-12-15T12:28:45.669Z,19.03
2018-12-15T12:29:45.825Z,19.03
2018-12-15T12:30:45.604Z,19.03
2018-12-15T12:31:45.747Z,19.03
2018-12-15T12:32:46.234Z,19.03
2018-12-15T12:33:45.746Z,19.03
2018-12-15T12:34:45.739Z,19.03
2018-12-15T12:35:45.669Z,19.03
2018-12-15T12:36:46.040Z,19.03
2018-12-15T12:37:46.479Z,19.03
2018-12-15T12:38:45.738Z,19.03
2018-12-15T12:39:45.524Z,19.01
2018-12-15T12:40:45.673Z,19.01
2018-12-15T12:41:46.058Z,19.02
2018-12-15T12:42:46.015Z,19.01
2018-12-15T12:43:45.856Z,19.02
2018-12-15T12:44:45.527Z,19.03
2018-12-15T12:45:45.798Z,19.03
2018-12-15T12:46:45.976Z,19.03
2018-12-15T12:47:45.800Z,19.01
2018-12-15T12:48:46.491Z,18.99
2018-12-15T12:49:45.928Z,18.97
2018-12-15T12:50:45.728Z,18.97
2018-12-15T12:51:45.768Z,18.97
2018-12-15T12:52:46.050Z,18.96
2018-12-15T12:53:46.660Z,18.96
2018-12-15T12:54:46.031Z,18.95
2018-12-15T12:55:45.920Z,18.94